Time,TemperatureF,DewpointF,PressureIn,WindDirection,WindDirectionDegrees,WindSpeedMPH,WindSpeedGustMPH,Humidity,HourlyPrecipIn,Conditions,Clouds,dailyrainin,SoftwareType,DateUTC
2013-06-18 00:02:00,71.0,71.0,-100.00,North,5,0.0,1.0,100,-99.99,,,-99.99,,2013-06-18 04:02:00,
2013-06-18 00:12:00,71.0,71.0,-100.00,North,5,0.0,1.0,100,-99.99,,,-99.99,,2013-06-18 04:12:00,
2013-06-18 00:23:00,71.0,71.0,-100.00,North,5,0.0,1.0,100,-99.99,,,-99.99,,2013-06-18 04:23:00,
2013-06-18 00:34:00,71.0,71.0,-100.00,North,5,0.0,1.0,99,-99.99,,,-99.99,,2013-06-18 04:34:00,
2013-06-18 00:43:00,71.0,71.0,-100.00,North,5,1.0,1.0,99,-99.99,,,-99.99,,2013-06-18 04:43:00,
2013-06-18 00:53:00,71.0,71.0,-100.00,North,5,0.0,2.0,99,-99.99,,,-99.99,,2013-06-18 04:53:00,
2013-06-18 01:02:00,71.0,71.0,-100.00,North,5,0.0,3.0,99,-99.99,,,-99.99,,2013-06-18 05:02:00,
2013-06-18 01:12:00,71.0,71.0,-100.00,North,5,0.0,3.0,99,-99.99,,,-99.99,,2013-06-18 05:12:00,
2013-06-18 01:22:00,71.0,71.0,-100.00,North,5,0.0,0.0,99,-99.99,,,-99.99,,2013-06-18 05:22:00,
2013-06-18 01:34:00,71.0,71.0,-100.00,North,5,0.0,0.0,99,-99.99,,,-99.99,,2013-06-18 05:34:00,
2013-06-18 01:43:00,71.0,71.0,-100.00,North,10,0.0,0.0,99,-99.99,,,-99.99,,2013-06-18 05:43:00,
2013-06-18 02:02:00,71.0,71.0,-100.00,North,10,0.0,0.0,99,-99.99,,,-99.99,,2013-06-18 06:02:00,
2013-06-18 02:11:00,71.0,71.0,-100.00,North,10,0.0,0.0,99,-99.99,,,-99.99,,2013-06-18 06:11:00,
2013-06-18 02:23:00,71.0,71.0,-100.00,North,10,4.0,6.0,99,-99.99,,,-99.99,,2013-06-18 06:23:00,
2013-06-18 02:32:00,71.0,71.0,-100.00,North,10,0.0,5.0,99,-99.99,,,-99.99,,2013-06-18 06:32:00,
2013-06-18 02:43:00,71.0,71.0,-100.00,North,10,3.0,4.0,99,-99.99,,,-99.99,,2013-06-18 06:43:00,
2013-06-18 02:52:00,71.0,70.0,-100.00,North,10,1.0,5.0,99,-99.99,,,-99.99,,2013-06-18 06:52:00,
2013-06-18 03:02:00,71.0,70.0,-100.00,North,10,4.0,6.0,99,-99.99,,,-99.99,,2013-06-18 07:02:00,
2013-06-18 03:12:00,71.0,70.0,-100.00,North,10,3.0,6.0,99,-99.99,,,-99.99,,2013-06-18 07:12:00,
2013-06-18 03:22:00,71.0,70.0,-100.00,North,10,3.0,6.0,99,-99.99,,,-99.99,,2013-06-18 07:22:00,
2013-06-18 03:33:00,70.0,70.0,-100.00,North,5,2.0,5.0,99,-99.99,,,-99.99,,2013-06-18 07:33:00,
2013-06-18 03:43:00,70.0,70.0,-100.00,North,10,3.0,5.0,99,-99.99,,,-99.99,,2013-06-18 07:43:00,
2013-06-18 03:53:00,70.0,70.0,-100.00,North,10,4.0,4.0,99,-99.99,,,-99.99,,2013-06-18 07:53:00,
2013-06-18 04:02:00,70.0,70.0,-100.00,North,5,1.0,4.0,99,-99.99,,,-99.99,,2013-06-18 08:02:00,
2013-06-18 04:11:00,70.0,70.0,-100.00,North,10,3.0,4.0,100,-99.99,,,-99.99,,2013-06-18 08:11:00,
2013-06-18 04:23:00,70.0,70.0,-100.00,North,10,2.0,4.0,99,-99.99,,,-99.99,,2013-06-18 08:23:00,
2013-06-18 04:33:00,70.0,70.0,-100.00,North,10,4.0,5.0,99,-99.99,,,-99.99,,2013-06-18 08:33:00,
2013-06-18 04:43:00,70.0,70.0,-100.00,North,5,4.0,6.0,99,-99.99,,,-99.99,,2013-06-18 08:43:00,
2013-06-18 04:52:00,70.0,70.0,-100.00,North,5,4.0,7.0,99,-99.99,,,-99.99,,2013-06-18 08:52:00,
2013-06-18 05:02:00,70.0,70.0,-100.00,North,10,4.0,7.0,99,-99.99,,,-99.99,,2013-06-18 09:02:00,
2013-06-18 05:12:00,70.0,70.0,-100.00,North,5,4.0,7.0,100,-99.99,,,-99.99,,2013-06-18 09:12:00,
2013-06-18 05:22:00,70.0,70.0,-100.00,North,5,4.0,7.0,100,-99.99,,,-99.99,,2013-06-18 09:22:00,
2013-06-18 05:34:00,70.0,70.0,-100.00,North,5,4.0,9.0,99,-99.99,,,-99.99,,2013-06-18 09:34:00,
2013-06-18 05:43:00,70.0,70.0,-100.00,North,5,4.0,7.0,99,-99.99,,,-99.99,,2013-06-18 09:43:00,
2013-06-18 05:53:00,70.0,70.0,-100.00,North,5,4.0,6.0,99,-99.99,,,-99.99,,2013-06-18 09:53:00,
2013-06-18 06:02:00,70.0,70.0,-100.00,North,5,4.0,7.0,99,-99.99,,,-99.99,,2013-06-18 10:02:00,
2013-06-18 06:11:00,71.0,70.0,-100.00,North,10,3.0,6.0,99,-99.99,,,-99.99,,2013-06-18 10:11:00,
2013-06-18 06:22:00,70.0,70.0,-100.00,North,10,5.0,8.0,99,-99.99,,,-99.99,,2013-06-18 10:22:00,
2013-06-18 06:33:00,70.0,70.0,-100.00,North,5,4.0,9.0,100,-99.99,,,-99.99,,2013-06-18 10:33:00,
2013-06-18 06:43:00,70.0,70.0,-100.00,North,5,4.0,8.0,99,-99.99,,,-99.99,,2013-06-18 10:43:00,
2013-06-18 06:53:00,70.0,70.0,-100.00,North,5,5.0,9.0,100,-99.99,,,-99.99,,2013-06-18 10:53:00,
2013-06-18 07:02:00,70.0,70.0,-100.00,North,5,4.0,7.0,99,-99.99,,,-99.99,,2013-06-18 11:02:00,
2013-06-18 07:11:00,70.0,70.0,-100.00,North,5,6.0,8.0,100,-99.99,,,-99.99,,2013-06-18 11:11:00,
2013-06-18 07:22:00,70.0,70.0,-100.00,North,5,4.0,8.0,99,-99.99,,,-99.99,,2013-06-18 11:22:00,
2013-06-18 07:32:00,70.0,70.0,-100.00,North,5,4.0,7.0,100,-99.99,,,-99.99,,2013-06-18 11:32:00,
2013-06-18 07:43:00,70.0,70.0,-100.00,North,5,4.0,9.0,99,-99.99,,,-99.99,,2013-06-18 11:43:00,
2013-06-18 07:52:00,70.0,70.0,-100.00,North,5,6.0,11.0,99,-99.99,,,-99.99,,2013-06-18 11:52:00,
2013-06-18 08:01:00,71.0,71.0,-100.00,North,5,4.0,9.0,99,-99.99,,,-99.99,,2013-06-18 12:01:00,
2013-06-18 08:11:00,71.0,71.0,-100.00,North,5,4.0,9.0,99,-99.99,,,-99.99,,2013-06-18 12:11:00,
2013-06-18 08:22:00,71.0,71.0,-100.00,North,5,3.0,8.0,99,-99.99,,,-99.99,,2013-06-18 12:22:00,
2013-06-18 08:33:00,71.0,71.0,-100.00,North,5,6.0,8.0,99,-99.99,,,-99.99,,2013-06-18 12:33:00,
2013-06-18 08:43:00,71.0,71.0,-100.00,North,5,4.0,8.0,99,-99.99,,,-99.99,,2013-06-18 12:43:00,
2013-06-18 08:52:00,71.0,71.0,-100.00,North,5,4.0,8.0,99,-99.99,,,-99.99,,2013-06-18 12:52:00,
2013-06-18 09:02:00,71.0,71.0,-100.00,North,5,6.0,9.0,100,-99.99,,,-99.99,,2013-06-18 13:02:00,
2013-06-18 09:12:00,71.0,71.0,-100.00,North,5,6.0,9.0,100,-99.99,,,-99.99,,2013-06-18 13:12:00,
2013-06-18 09:22:00,72.0,71.0,-100.00,North,5,4.0,10.0,99,-99.99,,,-99.99,,2013-06-18 13:22:00,
2013-06-18 09:33:00,72.0,71.0,-100.00,North,5,4.0,9.0,99,-99.99,,,-99.99,,2013-06-18 13:33:00,
2013-06-18 09:43:00,72.0,72.0,-100.00,North,5,4.0,9.0,99,-99.99,,,-99.99,,2013-06-18 13:43:00,
2013-06-18 09:52:00,72.0,72.0,-100.00,North,5,3.0,9.0,99,-99.99,,,-99.99,,2013-06-18 13:52:00,
2013-06-18 10:02:00,72.0,72.0,-100.00,North,5,5.0,11.0,99,-99.99,,,-99.99,,2013-06-18 14:02:00,
2013-06-18 10:11:00,72.0,71.0,-100.00,North,5,5.0,12.0,99,-99.99,,,-99.99,,2013-06-18 14:11:00,
2013-06-18 10:22:00,71.0,71.0,-100.00,North,5,5.0,11.0,99,-99.99,,,-99.99,,2013-06-18 14:22:00,
2013-06-18 10:33:00,70.0,70.0,-100.00,North,5,5.0,13.0,99,-99.99,,,-99.99,,2013-06-18 14:33:00,
2013-06-18 10:43:00,70.0,70.0,-100.00,North,5,5.0,9.0,99,-99.99,,,-99.99,,2013-06-18 14:43:00,
2013-06-18 10:53:00,70.0,70.0,-100.00,North,5,1.0,6.0,99,-99.99,,,-99.99,,2013-06-18 14:53:00,
2013-06-18 11:02:00,71.0,71.0,-100.00,North,5,4.0,5.0,99,-99.99,,,-99.99,,2013-06-18 15:02:00,
2013-06-18 11:11:00,72.0,71.0,-100.00,North,5,4.0,9.0,99,-99.99,,,-99.99,,2013-06-18 15:11:00,
2013-06-18 11:22:00,72.0,72.0,-100.00,North,5,6.0,11.0,100,-99.99,,,-99.99,,2013-06-18 15:22:00,
2013-06-18 11:33:00,72.0,71.0,-100.00,North,5,7.0,11.0,99,-99.99,,,-99.99,,2013-06-18 15:33:00,
2013-06-18 11:43:00,72.0,72.0,-100.00,North,5,8.0,11.0,99,-99.99,,,-99.99,,2013-06-18 15:43:00,
2013-06-18 11:53:00,73.0,73.0,-100.00,North,5,6.0,11.0,99,-99.99,,,-99.99,,2013-06-18 15:53:00,
2013-06-18 12:01:00,73.0,73.0,-100.00,North,5,11.0,18.0,99,-99.99,,,-99.99,,2013-06-18 16:01:00,
2013-06-18 12:11:00,73.0,73.0,-100.00,North,5,11.0,18.0,99,-99.99,,,-99.99,,2013-06-18 16:11:00,
2013-06-18 12:23:00,74.0,74.0,-100.00,North,5,11.0,21.0,99,-99.99,,,-99.99,,2013-06-18 16:23:00,
2013-06-18 12:33:00,74.0,74.0,-100.00,North,5,11.0,21.0,99,-99.99,,,-99.99,,2013-06-18 16:33:00,
2013-06-18 12:43:00,76.0,75.0,-100.00,North,5,6.0,20.0,99,-99.99,,,-99.99,,2013-06-18 16:43:00,
2013-06-18 12:53:00,77.0,76.0,-100.00,North,5,5.0,10.0,99,-99.99,,,-99.99,,2013-06-18 16:53:00,
2013-06-18 13:02:00,77.0,77.0,-100.00,North,5,6.0,14.0,100,-99.99,,,-99.99,,2013-06-18 17:02:00,
2013-06-18 13:12:00,78.0,77.0,-100.00,North,5,10.0,19.0,99,-99.99,,,-99.99,,2013-06-18 17:12:00,
2013-06-18 13:22:00,79.0,78.0,-100.00,North,5,8.0,14.0,99,-99.99,,,-99.99,,2013-06-18 17:22:00,
2013-06-18 13:33:00,80.0,79.0,-100.00,North,5,8.0,18.0,99,-99.99,,,-99.99,,2013-06-18 17:33:00,
2013-06-18 13:43:00,80.0,79.0,-100.00,North,5,9.0,18.0,99,-99.99,,,-99.99,,2013-06-18 17:43:00,
2013-06-18 13:53:00,80.0,79.0,-100.00,North,5,12.0,17.0,99,-99.99,,,-99.99,,2013-06-18 17:53:00,
2013-06-18 14:02:00,80.0,80.0,-100.00,North,5,10.0,21.0,100,-99.99,,,-99.99,,2013-06-18 18:02:00,
2013-06-18 14:12:00,81.0,80.0,-100.00,North,5,9.0,17.0,99,-99.99,,,-99.99,,2013-06-18 18:12:00,
2013-06-18 14:22:00,81.0,80.0,-100.00,North,5,9.0,17.0,99,-99.99,,,-99.99,,2013-06-18 18:22:00,
2013-06-18 14:33:00,81.0,81.0,-100.00,North,5,9.0,15.0,100,-99.99,,,-99.99,,2013-06-18 18:33:00,
2013-06-18 14:42:00,81.0,81.0,-100.00,North,5,9.0,17.0,99,-99.99,,,-99.99,,2013-06-18 18:42:00,
2013-06-18 15:02:00,81.0,81.0,-100.00,North,5,8.0,21.0,99,-99.99,,,-99.99,,2013-06-18 19:02:00,
2013-06-18 15:22:00,80.0,80.0,-100.00,North,5,9.0,14.0,99,-99.99,,,-99.99,,2013-06-18 19:22:00,
2013-06-18 15:33:00,82.0,82.0,-100.00,North,5,11.0,19.0,99,-99.99,,,-99.99,,2013-06-18 19:33:00,
2013-06-18 15:43:00,84.0,83.0,-100.00,North,5,8.0,15.0,99,-99.99,,,-99.99,,2013-06-18 19:43:00,
2013-06-18 16:11:00,82.0,82.0,-100.00,North,5,4.0,11.0,99,-99.99,,,-99.99,,2013-06-18 20:11:00,
2013-06-18 16:52:00,81.0,80.0,-100.00,North,5,7.0,11.0,99,-99.99,,,-99.99,,2013-06-18 20:52:00,
2013-06-18 17:02:00,78.0,77.0,-100.00,North,5,10.0,17.0,99,-99.99,,,-99.99,,2013-06-18 21:02:00,
2013-06-18 17:12:00,78.0,77.0,-100.00,North,5,10.0,17.0,99,-99.99,,,-99.99,,2013-06-18 21:12:00,
2013-06-18 17:23:00,78.0,77.0,-100.00,North,5,9.0,16.0,99,-99.99,,,-99.99,,2013-06-18 21:23:00,
2013-06-18 17:33:00,77.0,77.0,-100.00,North,5,1.0,7.0,99,-99.99,,,-99.99,,2013-06-18 21:33:00,
2013-06-18 17:43:00,80.0,80.0,-100.00,North,5,11.0,18.0,99,-99.99,,,-99.99,,2013-06-18 21:43:00,
2013-06-18 17:52:00,80.0,79.0,-100.00,North,5,7.0,14.0,99,-99.99,,,-99.99,,2013-06-18 21:52:00,
2013-06-18 18:11:00,81.0,80.0,-100.00,North,5,8.0,18.0,99,-99.99,,,-99.99,,2013-06-18 22:11:00,
2013-06-18 18:22:00,81.0,81.0,-100.00,North,5,8.0,14.0,99,-99.99,,,-99.99,,2013-06-18 22:22:00,
2013-06-18 18:34:00,81.0,81.0,-100.00,North,5,7.0,15.0,99,-99.99,,,-99.99,,2013-06-18 22:34:00,
2013-06-18 18:53:00,82.0,82.0,-100.00,North,5,8.0,12.0,99,-99.99,,,-99.99,,2013-06-18 22:53:00,
2013-06-18 19:02:00,81.0,81.0,-100.00,North,5,10.0,16.0,99,-99.99,,,-99.99,,2013-06-18 23:02:00,
2013-06-18 19:12:00,81.0,80.0,-100.00,North,5,9.0,14.0,99,-99.99,,,-99.99,,2013-06-18 23:12:00,
2013-06-18 19:23:00,80.0,80.0,-100.00,North,5,7.0,15.0,99,-99.99,,,-99.99,,2013-06-18 23:23:00,
2013-06-18 19:53:00,79.0,79.0,-100.00,North,5,7.0,12.0,99,-99.99,,,-99.99,,2013-06-18 23:53:00,
2013-06-18 20:02:00,79.0,79.0,-100.00,North,5,4.0,8.0,99,-99.99,,,-99.99,,2013-06-19 00:02:00,
2013-06-18 20:12:00,79.0,79.0,-100.00,North,5,4.0,7.0,100,-99.99,,,-99.99,,2013-06-19 00:12:00,
2013-06-18 20:22:00,78.0,78.0,-100.00,North,5,6.0,9.0,99,-99.99,,,-99.99,,2013-06-19 00:22:00,
2013-06-18 20:33:00,77.0,77.0,-100.00,North,5,7.0,13.0,99,-99.99,,,-99.99,,2013-06-19 00:33:00,
2013-06-18 20:43:00,76.0,76.0,-100.00,North,5,5.0,13.0,99,-99.99,,,-99.99,,2013-06-19 00:43:00,
2013-06-18 20:53:00,76.0,76.0,-100.00,North,5,5.0,9.0,99,-99.99,,,-99.99,,2013-06-19 00:53:00,
2013-06-18 21:01:00,76.0,75.0,-100.00,North,5,5.0,8.0,99,-99.99,,,-99.99,,2013-06-19 01:01:00,
2013-06-18 21:11:00,75.0,75.0,-100.00,North,5,2.0,8.0,99,-99.99,,,-99.99,,2013-06-19 01:11:00,
2013-06-18 21:22:00,75.0,75.0,-100.00,North,5,4.0,6.0,99,-99.99,,,-99.99,,2013-06-19 01:22:00,
2013-06-18 21:32:00,75.0,75.0,-100.00,North,5,3.0,5.0,99,-99.99,,,-99.99,,2013-06-19 01:32:00,
2013-06-18 21:43:00,74.0,74.0,-100.00,North,5,2.0,5.0,99,-99.99,,,-99.99,,2013-06-19 01:43:00,
2013-06-18 21:53:00,74.0,74.0,-100.00,North,5,1.0,4.0,100,-99.99,,,-99.99,,2013-06-19 01:53:00,
2013-06-18 22:01:00,74.0,73.0,-100.00,North,5,1.0,3.0,99,-99.99,,,-99.99,,2013-06-19 02:01:00,
2013-06-18 22:11:00,74.0,73.0,-100.00,North,5,1.0,4.0,99,-99.99,,,-99.99,,2013-06-19 02:11:00,
2013-06-18 22:21:00,74.0,73.0,-100.00,North,5,1.0,3.0,99,-99.99,,,-99.99,,2013-06-19 02:21:00,
2013-06-18 22:32:00,74.0,73.0,-100.00,North,5,2.0,4.0,99,-99.99,,,-99.99,,2013-06-19 02:32:00,
2013-06-18 22:42:00,74.0,74.0,-100.00,North,5,2.0,4.0,99,-99.99,,,-99.99,,2013-06-19 02:42:00,
2013-06-18 22:52:00,74.0,73.0,-100.00,North,5,1.0,2.0,99,-99.99,,,-99.99,,2013-06-19 02:52:00,
2013-06-18 23:01:00,74.0,74.0,-100.00,North,5,0.0,2.0,99,-99.99,,,-99.99,,2013-06-19 03:01:00,
2013-06-18 23:11:00,74.0,73.0,-100.00,North,5,1.0,4.0,99,-99.99,,,-99.99,,2013-06-19 03:11:00,
2013-06-18 23:22:00,74.0,73.0,-100.00,North,5,0.0,2.0,99,-99.99,,,-99.99,,2013-06-19 03:22:00,
2013-06-18 23:33:00,74.0,73.0,-100.00,North,5,0.0,1.0,99,-99.99,,,-99.99,,2013-06-19 03:33:00,
2013-06-18 23:42:00,74.0,73.0,-100.00,North,5,0.0,2.0,99,-99.99,,,-99.99,,2013-06-19 03:42:00,
2013-06-18 23:52:00,74.0,73.0,-100.00,North,5,0.0,1.0,99,-99.99,,,-99.99,,2013-06-19 03:52:00,